Time;durP1;ratioP1;P1;durP2;ratioP2;P2;SDS_P1;SDS_P2;PMS_P1;PMS_P2;Temp;Humidity;BMP_temperature;BMP_pressure;BME280_temperature;BME280_humidity;BME280_pressure;Samples;Min_cycle;Max_cycle;Signal;HPM_P1;HPM_P2
2022/10/11 00:00:04;;;;;;;17.80;4.00;;;;;;;;;;5005640;28;92370;-82
2022/10/11 00:02:31;;;;;;;19.17;3.75;;;;;;;;;;5018239;28;92368;-83
2022/10/11 00:04:57;;;;;;;15.18;3.72;;;;;;;;;;5016458;28;93126;-82
2022/10/11 00:07:25;;;;;;;11.05;3.28;;;;;;;;;;5005564;28;91700;-83
2022/10/11 00:09:51;;;;;;;21.00;4.22;;;;;;;;;;4997377;28;94111;-82
2022/10/11 00:12:18;;;;;;;17.83;4.35;;;;;;;;;;4996725;28;92409;-83
2022/10/11 00:14:44;;;;;;;15.27;3.60;;;;;;;;;;4996048;28;94841;-82
2022/10/11 00:17:10;;;;;;;30.75;3.83;;;;;;;;;;4997511;28;94817;-82
2022/10/11 00:19:37;;;;;;;12.45;3.22;;;;;;;;;;4996606;28;92486;-83
2022/10/11 00:22:03;;;;;;;12.98;3.97;;;;;;;;;;4996893;28;93800;-83
2022/10/11 00:24:29;;;;;;;14.38;3.88;;;;;;;;;;4996779;28;94336;-82
2022/10/11 00:26:56;;;;;;;22.15;3.67;;;;;;;;;;5000024;28;92421;-82
2022/10/11 00:29:22;;;;;;;9.73;2.83;;;;;;;;;;4997374;28;93209;-83
2022/10/11 00:31:48;;;;;;;12.13;3.30;;;;;;;;;;4996572;28;91813;-83
2022/10/11 00:34:16;;;;;;;14.02;4.13;;;;;;;;;;4997613;28;93121;-83
2022/10/11 00:36:44;;;;;;;16.13;4.53;;;;;;;;;;4996701;28;94101;-82
2022/10/11 00:39:10;;;;;;;9.68;3.92;;;;;;;;;;4994669;28;94871;-82
2022/10/11 00:41:39;;;;;;;15.63;3.88;;;;;;;;;;4997987;28;96587;-83
2022/10/11 00:44:13;;;;;;;16.05;4.22;;;;;;;;;;4998149;28;94122;-83
2022/10/11 00:46:42;;;;;;;23.38;4.65;;;;;;;;;;4997573;28;92896;-83
2022/10/11 00:49:27;;;;;;;18.90;4.10;;;;;;;;;;4987894;28;94035;-84
2022/10/11 00:51:55;;;;;;;13.50;3.75;;;;;;;;;;4993852;28;93001;-84
2022/10/11 00:54:24;;;;;;;9.85;3.50;;;;;;;;;;4995824;28;94531;-83
2022/10/11 00:56:52;;;;;;;19.77;4.53;;;;;;;;;;4997284;28;93516;-84
2022/10/11 00:59:24;;;;;;;10.85;3.67;;;;;;;;;;4996620;28;92400;-84
2022/10/11 01:01:51;;;;;;;16.63;4.07;;;;;;;;;;4996238;28;93155;-83
2022/10/11 01:04:17;;;;;;;16.08;4.00;;;;;;;;;;4994817;28;96558;-83
2022/10/11 01:06:44;;;;;;;15.32;3.28;;;;;;;;;;4995399;28;92361;-83
2022/10/11 01:09:11;;;;;;;15.63;5.15;;;;;;;;;;4997198;28;93990;-83
2022/10/11 01:11:38;;;;;;;14.05;3.28;;;;;;;;;;4999399;28;94124;-84
2022/10/11 01:14:16;;;;;;;11.02;3.17;;;;;;;;;;4995679;28;93920;-84
2022/10/11 01:16:56;;;;;;;11.38;3.17;;;;;;;;;;4996532;28;93389;-84
2022/10/11 01:19:46;;;;;;;12.88;3.90;;;;;;;;;;4996322;28;92408;-83
2022/10/11 01:22:32;;;;;;;24.73;3.92;;;;;;;;;;4995162;28;93239;-83
2022/10/11 01:25:13;;;;;;;18.63;3.72;;;;;;;;;;5002428;28;94351;-83
2022/10/11 01:27:42;;;;;;;13.93;4.13;;;;;;;;;;5016683;28;92286;-83
2022/10/11 01:30:15;;;;;;;24.40;3.60;;;;;;;;;;5013971;28;94743;-84
2022/10/11 01:32:48;;;;;;;7.53;3.25;;;;;;;;;;5016189;28;94137;-84
2022/10/11 01:35:22;;;;;;;11.88;3.70;;;;;;;;;;5018431;28;93042;-83
2022/10/11 01:38:00;;;;;;;12.60;3.70;;;;;;;;;;5016762;28;93754;-83
2022/10/11 01:40:32;;;;;;;11.73;3.88;;;;;;;;;;5019229;28;92906;-82
2022/10/11 01:42:59;;;;;;;14.55;4.35;;;;;;;;;;5016967;28;93796;-82
2022/10/11 01:45:25;;;;;;;17.55;4.00;;;;;;;;;;5018355;28;94020;-83
2022/10/11 01:48:08;;;;;;;6.95;3.17;;;;;;;;;;5004361;28;91906;-83
2022/10/11 01:50:35;;;;;;;;;;;;;;;;;;4996414;28;92332;-83
2022/10/11 01:53:10;;;;;;;10.93;3.28;;;;;;;;;;4996378;28;123549;-82
2022/10/11 01:55:46;;;;;;;10.70;3.70;;;;;;;;;;4994706;28;94786;-82
2022/10/11 01:58:27;;;;;;;7.55;3.58;;;;;;;;;;4999172;28;96320;-83
2022/10/11 02:01:02;;;;;;;11.07;4.53;;;;;;;;;;4998840;28;92419;-82
2022/10/11 02:03:49;;;;;;;10.23;3.55;;;;;;;;;;4995405;28;93911;-82
2022/10/11 02:06:24;;;;;;;12.55;3.33;;;;;;;;;;4995464;28;94063;-82
2022/10/11 02:08:53;;;;;;;12.27;3.75;;;;;;;;;;4996156;28;92468;-82
2022/10/11 02:11:28;;;;;;;9.77;3.60;;;;;;;;;;4994552;28;93872;-82
2022/10/11 02:14:13;;;;;;;10.35;3.58;;;;;;;;;;4996118;28;93807;-83
2022/10/11 02:16:42;;;;;;;8.82;3.55;;;;;;;;;;4995975;28;92423;-83
2022/10/11 02:19:09;;;;;;;12.65;3.33;;;;;;;;;;4997018;28;94016;-82
2022/10/11 02:21:38;;;;;;;14.65;4.18;;;;;;;;;;4993693;28;95712;-83
2022/10/11 02:24:07;;;;;;;7.60;4.35;;;;;;;;;;4994454;28;96596;-82
2022/10/11 02:26:35;;;;;;;7.43;3.15;;;;;;;;;;4994863;28;93117;-82
2022/10/11 02:29:03;;;;;;;6.28;3.03;;;;;;;;;;4995148;28;92426;-82
2022/10/11 02:31:31;;;;;;;13.57;4.25;;;;;;;;;;4994692;28;92482;-82
2022/10/11 02:34:08;;;;;;;7.90;3.63;;;;;;;;;;4995248;28;93072;-81
2022/10/11 02:36:53;;;;;;;8.68;3.83;;;;;;;;;;4995327;28;92347;-82
2022/10/11 02:39:40;;;;;;;8.38;3.80;;;;;;;;;;4994610;28;93861;-82
2022/10/11 02:42:09;;;;;;;13.95;3.38;;;;;;;;;;4997683;28;96171;-82
2022/10/11 02:44:41;;;;;;;15.40;3.90;;;;;;;;;;4995224;28;93074;-83
2022/10/11 02:47:08;;;;;;;7.70;3.35;;;;;;;;;;4991973;28;96855;-82
2022/10/11 02:49:34;;;;;;;11.30;3.28;;;;;;;;;;4999389;28;92515;-83
2022/10/11 02:52:02;;;;;;;10.30;3.53;;;;;;;;;;5014628;28;93789;-82
2022/10/11 02:54:29;;;;;;;13.50;4.10;;;;;;;;;;5014460;28;94037;-81
2022/10/11 02:56:55;;;;;;;5.65;3.42;;;;;;;;;;5015220;28;92297;-82
2022/10/11 02:59:21;;;;;;;6.75;3.45;;;;;;;;;;5014838;28;93820;-82
2022/10/11 03:01:48;;;;;;;11.80;3.67;;;;;;;;;;5014719;28;94189;-82
2022/10/11 03:04:14;;;;;;;12.05;4.45;;;;;;;;;;5018459;28;91716;-82
2022/10/11 03:06:40;;;;;;;8.43;3.40;;;;;;;;;;5013309;28;94262;-83
2022/10/11 03:09:07;;;;;;;10.05;4.38;;;;;;;;;;5014682;28;92381;-82
2022/10/11 03:11:33;;;;;;;5.78;3.20;;;;;;;;;;5013150;28;94771;-83
2022/10/11 03:13:59;;;;;;;17.67;4.63;;;;;;;;;;5013405;28;94274;-83
2022/10/11 03:16:26;;;;;;;13.02;3.20;;;;;;;;;;5013100;28;92716;-83
2022/10/11 03:18:52;;;;;;;10.10;4.53;;;;;;;;;;4994665;28;93932;-83
2022/10/11 03:21:18;;;;;;;9.38;3.70;;;;;;;;;;4993652;28;94160;-83
2022/10/11 03:23:45;;;;;;;13.15;3.78;;;;;;;;;;5000712;28;92331;-83
2022/10/11 03:26:11;;;;;;;11.27;3.42;;;;;;;;;;5016527;28;92928;-83
2022/10/11 03:28:37;;;;;;;10.48;4.43;;;;;;;;;;5014328;28;91793;-83
2022/10/11 03:31:04;;;;;;;13.07;3.15;;;;;;;;;;5016705;28;93211;-83
2022/10/11 03:33:31;;;;;;;12.60;4.43;;;;;;;;;;5017912;28;93408;-83
2022/10/11 03:35:58;;;;;;;8.57;3.95;;;;;;;;;;5015700;28;94857;-82
2022/10/11 03:38:24;;;;;;;7.13;3.40;;;;;;;;;;5018175;28;96138;-83
2022/10/11 03:40:51;;;;;;;7.65;3.65;;;;;;;;;;5016729;28;94423;-83
2022/10/11 03:43:17;;;;;;;4.57;2.85;;;;;;;;;;5016945;28;92461;-83
2022/10/11 03:45:43;;;;;;;7.30;3.30;;;;;;;;;;5017707;28;93880;-82
2022/10/11 03:48:10;;;;;;;10.05;3.75;;;;;;;;;;5001742;28;94401;-83
2022/10/11 03:50:36;;;;;;;6.78;3.38;;;;;;;;;;4996746;28;94569;-82
2022/10/11 03:53:03;;;;;;;6.95;3.97;;;;;;;;;;4997713;28;93321;-83
2022/10/11 03:55:30;;;;;;;10.07;4.05;;;;;;;;;;4996999;28;92427;-82
2022/10/11 03:57:56;;;;;;;15.73;3.83;;;;;;;;;;5004322;28;93744;-83
2022/10/11 04:00:23;;;;;;;13.20;4.78;;;;;;;;;;5001932;28;96654;-83
2022/10/11 04:02:49;;;;;;;7.03;3.83;;;;;;;;;;4996989;28;92755;-83
2022/10/11 04:05:16;;;;;;;8.32;4.20;;;;;;;;;;4997767;28;93232;-82
2022/10/11 04:07:42;;;;;;;6.95;3.53;;;;;;;;;;4997396;28;94194;-83
2022/10/11 04:10:08;;;;;;;10.65;3.38;;;;;;;;;;4999187;28;92487;-82
2022/10/11 04:12:36;;;;;;;8.38;3.60;;;;;;;;;;4997221;28;94327;-82
2022/10/11 04:15:02;;;;;;;7.22;3.17;;;;;;;;;;4998130;28;92401;-82
2022/10/11 04:17:28;;;;;;;7.63;4.25;;;;;;;;;;4997179;28;94000;-82
2022/10/11 04:19:55;;;;;;;9.45;3.65;;;;;;;;;;4997134;28;94007;-82
2022/10/11 04:22:21;;;;;;;7.80;3.60;;;;;;;;;;4996977;28;92594;-82
2022/10/11 04:24:47;;;;;;;7.68;4.13;;;;;;;;;;4995142;28;94783;-82
2022/10/11 04:27:14;;;;;;;9.88;4.35;;;;;;;;;;4995516;28;94361;-84
2022/10/11 04:29:40;;;;;;;14.63;3.17;;;;;;;;;;4999137;28;92511;-83
2022/10/11 04:32:06;;;;;;;12.18;3.75;;;;;;;;;;4995348;28;94131;-82
2022/10/11 04:34:33;;;;;;;9.57;3.30;;;;;;;;;;4996099;28;92526;-81
2022/10/11 04:36:59;;;;;;;10.77;3.72;;;;;;;;;;4995805;28;94519;-82
2022/10/11 04:39:25;;;;;;;15.00;4.40;;;;;;;;;;4994945;28;94047;-82
2022/10/11 04:41:52;;;;;;;12.48;3.90;;;;;;;;;;4996024;28;91851;-82
2022/10/11 04:44:18;;;;;;;10.55;3.60;;;;;;;;;;4995762;28;93327;-82
2022/10/11 04:46:44;;;;;;;12.82;3.75;;;;;;;;;;4994377;28;94015;-82
2022/10/11 04:49:11;;;;;;;8.80;3.80;;;;;;;;;;5003179;28;95368;-82
2022/10/11 04:51:37;;;;;;;7.18;4.30;;;;;;;;;;5018555;28;96438;-82
2022/10/11 04:54:03;;;;;;;11.07;3.80;;;;;;;;;;5014390;28;92915;-82
2022/10/11 04:56:30;;;;;;;14.45;3.72;;;;;;;;;;5015659;28;94368;-82
2022/10/11 04:58:56;;;;;;;9.45;4.22;;;;;;;;;;5014318;28;94348;-82
2022/10/11 05:01:22;;;;;;;10.00;3.85;;;;;;;;;;5015507;28;92465;-82
2022/10/11 05:03:49;;;;;;;9.93;4.07;;;;;;;;;;5015439;28;93357;-82
2022/10/11 05:06:15;;;;;;;8.88;4.13;;;;;;;;;;5013719;28;93426;-81
2022/10/11 05:08:41;;;;;;;14.52;3.53;;;;;;;;;;5015502;28;92408;-81
2022/10/11 05:11:10;;;;;;;7.45;3.90;;;;;;;;;;5015052;28;93843;-82
2022/10/11 05:13:36;;;;;;;7.53;4.03;;;;;;;;;;5015884;28;96392;-82
2022/10/11 05:16:03;;;;;;;15.23;4.25;;;;;;;;;;5012141;28;96534;-82
2022/10/11 05:18:35;;;;;;;;;;;;;;;;;;4995750;28;93144;-82
2022/10/11 05:21:06;;;;;;;10.50;3.92;;;;;;;;;;4994357;28;119063;-82
2022/10/11 05:23:33;;;;;;;12.65;4.13;;;;;;;;;;5007750;28;94047;-83
2022/10/11 05:26:00;;;;;;;6.28;3.40;;;;;;;;;;4975349;28;1128595;-82
2022/10/11 05:28:27;;;;;;;9.98;3.58;;;;;;;;;;5015817;28;92578;-82
2022/10/11 05:30:53;;;;;;;7.18;3.65;;;;;;;;;;5016890;28;93898;-82
2022/10/11 05:33:20;;;;;;;8.52;4.38;;;;;;;;;;5015676;28;93967;-82
2022/10/11 05:35:46;;;;;;;11.32;3.83;;;;;;;;;;5018827;28;93117;-82
2022/10/11 05:38:12;;;;;;;8.70;3.80;;;;;;;;;;5014051;28;95903;-81
2022/10/11 05:40:39;;;;;;;14.60;5.13;;;;;;;;;;5015343;28;92457;-82
2022/10/11 05:43:05;;;;;;;9.02;4.30;;;;;;;;;;5015249;28;94171;-82
2022/10/11 05:45:34;;;;;;;18.65;4.25;;;;;;;;;;5015275;28;93234;-82
2022/10/11 05:48:00;;;;;;;9.70;4.30;;;;;;;;;;4987316;28;92809;-82
2022/10/11 05:50:27;;;;;;;17.00;4.28;;;;;;;;;;4995814;28;93808;-82
2022/10/11 05:52:54;;;;;;;7.20;4.13;;;;;;;;;;4995215;28;93468;-82
2022/10/11 05:55:20;;;;;;;16.30;4.60;;;;;;;;;;4995496;28;91695;-82
2022/10/11 05:57:46;;;;;;;15.43;4.38;;;;;;;;;;5002526;28;92460;-82
2022/10/11 06:00:13;;;;;;;13.18;4.10;;;;;;;;;;4986304;28;92401;-82
2022/10/11 06:02:40;;;;;;;10.25;4.05;;;;;;;;;;4989923;28;97911;-83
2022/10/11 06:05:06;;;;;;;10.55;4.22;;;;;;;;;;4994343;28;94212;-81
2022/10/11 06:07:34;;;;;;;6.88;3.55;;;;;;;;;;4994773;28;92515;-81
2022/10/11 06:10:00;;;;;;;9.85;4.03;;;;;;;;;;4991318;28;93986;-85
2022/10/11 06:12:30;;;;;;;6.93;5.18;;;;;;;;;;4994427;28;94162;-85
2022/10/11 06:14:56;;;;;;;8.13;4.40;;;;;;;;;;4975496;28;92476;-86
2022/10/11 06:17:23;;;;;;;14.60;4.95;;;;;;;;;;4990430;28;94063;-85
2022/10/11 06:19:49;;;;;;;9.48;4.75;;;;;;;;;;4996894;28;93584;-87
2022/10/11 06:22:16;;;;;;;18.83;3.92;;;;;;;;;;4995259;28;93056;-82
2022/10/11 06:24:43;;;;;;;8.73;4.00;;;;;;;;;;4989326;28;94391;-82
2022/10/11 06:27:09;;;;;;;14.02;4.47;;;;;;;;;;4989701;28;94963;-82
2022/10/11 06:29:35;;;;;;;8.35;4.38;;;;;;;;;;4991252;28;96366;-81
2022/10/11 06:32:02;;;;;;;8.60;4.35;;;;;;;;;;4993139;28;94047;-80
2022/10/11 06:34:28;;;;;;;13.52;4.97;;;;;;;;;;4990469;28;92519;-83
2022/10/11 06:36:55;;;;;;;9.20;4.40;;;;;;;;;;5009491;28;93736;-82
2022/10/11 06:39:21;;;;;;;11.07;5.15;;;;;;;;;;5017691;28;92919;-87
2022/10/11 06:41:48;;;;;;;16.15;5.10;;;;;;;;;;5015338;28;94256;-84
2022/10/11 06:44:14;;;;;;;17.50;5.28;;;;;;;;;;5015298;28;93478;-87
2022/10/11 06:46:40;;;;;;;11.07;5.72;;;;;;;;;;5001099;28;92890;-85
2022/10/11 06:49:07;;;;;;;13.07;4.97;;;;;;;;;;4994969;28;93919;-86
2022/10/11 06:51:34;;;;;;;12.45;6.00;;;;;;;;;;4992397;28;97097;-85
2022/10/11 06:54:01;;;;;;;17.50;9.98;;;;;;;;;;4995274;28;92501;-86
2022/10/11 06:56:28;;;;;;;23.52;11.00;;;;;;;;;;4994472;28;93327;-86
2022/10/11 06:58:56;;;;;;;35.15;16.50;;;;;;;;;;4993518;28;94267;-84
2022/10/11 07:01:23;;;;;;;40.30;21.60;;;;;;;;;;4995864;28;92318;-85
2022/10/11 07:03:50;;;;;;;67.57;40.35;;;;;;;;;;4993713;28;94272;-85
2022/10/11 07:06:18;;;;;;;95.80;52.42;;;;;;;;;;4989695;28;92510;-84
2022/10/11 07:08:45;;;;;;;114.03;65.82;;;;;;;;;;4994715;28;94021;-85
2022/10/11 07:11:12;;;;;;;110.47;64.97;;;;;;;;;;4993873;28;93131;-83
2022/10/11 07:13:39;;;;;;;99.65;59.95;;;;;;;;;;4993474;28;92531;-84
2022/10/11 07:16:07;;;;;;;68.93;44.85;;;;;;;;;;4992314;28;94726;-84
2022/10/11 07:18:37;;;;;;;85.82;50.67;;;;;;;;;;4993233;28;93266;-85
2022/10/11 07:21:04;;;;;;;83.13;45.80;;;;;;;;;;4993216;28;92711;-84
2022/10/11 07:23:31;;;;;;;57.67;36.30;;;;;;;;;;4997122;28;93665;-84
2022/10/11 07:25:57;;;;;;;50.53;25.90;;;;;;;;;;4992122;28;92786;-85
2022/10/11 07:28:24;;;;;;;21.65;13.70;;;;;;;;;;4993183;28;94435;-85
2022/10/11 07:30:50;;;;;;;20.23;11.18;;;;;;;;;;4988888;28;94125;-84
2022/10/11 07:33:17;;;;;;;18.77;11.38;;;;;;;;;;4993977;28;91646;-81
2022/10/11 07:35:45;;;;;;;23.00;10.32;;;;;;;;;;4993285;28;93489;-85
2022/10/11 07:38:14;;;;;;;19.55;9.55;;;;;;;;;;4994687;28;92738;-84
2022/10/11 07:40:42;;;;;;;17.73;8.32;;;;;;;;;;4984686;28;94912;-83
2022/10/11 07:43:08;;;;;;;15.05;8.27;;;;;;;;;;4993031;28;96447;-85
2022/10/11 07:45:38;;;;;;;20.70;10.02;;;;;;;;;;4995236;28;93927;-85
2022/10/11 07:48:05;;;;;;;23.45;9.90;;;;;;;;;;4992441;28;94047;-85
2022/10/11 07:50:32;;;;;;;15.85;8.73;;;;;;;;;;4994456;28;94189;-85
2022/10/11 07:52:58;;;;;;;14.07;9.02;;;;;;;;;;4992741;28;92545;-83
2022/10/11 07:55:26;;;;;;;21.42;8.68;;;;;;;;;;4991732;28;93841;-83
2022/10/11 07:57:56;;;;;;;24.85;8.43;;;;;;;;;;4991015;28;93124;-84
2022/10/11 08:00:23;;;;;;;24.52;8.32;;;;;;;;;;4994187;28;92371;-85
2022/10/11 08:02:49;;;;;;;20.52;7.60;;;;;;;;;;4993870;28;93090;-85
2022/10/11 08:05:16;;;;;;;16.27;6.93;;;;;;;;;;4992232;28;96559;-86
2022/10/11 08:07:42;;;;;;;19.00;8.38;;;;;;;;;;4997478;28;92431;-84
2022/10/11 08:10:08;;;;;;;13.93;7.15;;;;;;;;;;4993285;28;94341;-90
2022/10/11 08:12:35;;;;;;;17.52;7.68;;;;;;;;;;4992790;28;92483;-83
2022/10/11 08:15:02;;;;;;;17.88;7.43;;;;;;;;;;4993777;28;92403;-83
2022/10/11 08:17:28;;;;;;;15.73;7.18;;;;;;;;;;4995646;28;94132;-83
2022/10/11 08:19:56;;;;;;;12.98;6.55;;;;;;;;;;4997140;28;92783;-83
2022/10/11 08:22:23;;;;;;;21.15;7.72;;;;;;;;;;4998246;28;94063;-83
2022/10/11 08:24:49;;;;;;;15.32;5.50;;;;;;;;;;4996640;28;94074;-83
2022/10/11 08:27:16;;;;;;;10.23;4.22;;;;;;;;;;4996115;28;94604;-83
2022/10/11 08:29:42;;;;;;;14.43;4.65;;;;;;;;;;4998589;28;94702;-83
2022/10/11 08:32:10;;;;;;;16.17;4.82;;;;;;;;;;4995919;28;92369;-83
2022/10/11 08:34:37;;;;;;;16.35;4.50;;;;;;;;;;4997090;28;94437;-84
2022/10/11 08:37:03;;;;;;;11.02;4.00;;;;;;;;;;4996019;28;94062;-83
2022/10/11 08:39:29;;;;;;;11.45;3.60;;;;;;;;;;4997163;28;92515;-83
2022/10/11 08:42:05;;;;;;;16.48;3.80;;;;;;;;;;4997320;28;93667;-84
2022/10/11 08:44:41;;;;;;;10.15;3.97;;;;;;;;;;4996008;28;93549;-83
2022/10/11 08:47:30;;;;;;;12.15;4.15;;;;;;;;;;4997410;28;91721;-84
2022/10/11 08:49:57;;;;;;;15.32;3.30;;;;;;;;;;4999901;28;92790;-84
2022/10/11 08:52:29;;;;;;;17.23;3.78;;;;;;;;;;4996592;28;92496;-84
2022/10/11 08:54:58;;;;;;;9.27;3.28;;;;;;;;;;4995358;28;95599;-84
2022/10/11 08:57:25;;;;;;;13.85;3.22;;;;;;;;;;4996840;28;94129;-83
2022/10/11 08:59:56;;;;;;;9.65;3.38;;;;;;;;;;4996057;28;92531;-83
2022/10/11 09:02:41;;;;;;;14.80;2.92;;;;;;;;;;4996634;28;94197;-83
2022/10/11 09:05:31;;;;;;;13.35;2.65;;;;;;;;;;4996173;28;93015;-83
2022/10/11 09:08:15;;;;;;;8.30;2.55;;;;;;;;;;4996644;28;92447;-83
2022/10/11 09:11:00;;;;;;;11.63;3.08;;;;;;;;;;4996916;28;93878;-83
2022/10/11 09:13:42;;;;;;;14.43;3.42;;;;;;;;;;4999047;28;93583;-84
2022/10/11 09:16:16;;;;;;;10.48;2.63;;;;;;;;;;4995565;28;93091;-84
2022/10/11 09:19:08;;;;;;;11.98;2.88;;;;;;;;;;4991266;28;94591;-84
2022/10/11 09:21:49;;;;;;;11.55;2.80;;;;;;;;;;4994684;28;94823;-84
2022/10/11 09:24:27;;;;;;;15.75;3.08;;;;;;;;;;4996324;28;96501;-84
2022/10/11 09:26:55;;;;;;;10.77;2.65;;;;;;;;;;4995658;28;93158;-82
2022/10/11 09:29:28;;;;;;;9.85;2.65;;;;;;;;;;4996530;28;92485;-83
2022/10/11 09:31:55;;;;;;;9.35;2.80;;;;;;;;;;4995756;28;93947;-79
2022/10/11 09:34:24;;;;;;;13.57;2.70;;;;;;;;;;5005858;28;94180;-83
2022/10/11 09:36:55;;;;;;;18.00;3.03;;;;;;;;;;4999643;28;92497;-76
2022/10/11 09:39:34;;;;;;;10.00;2.70;;;;;;;;;;4997417;28;93700;-80
2022/10/11 09:42:02;;;;;;;9.65;2.67;;;;;;;;;;4995369;28;92506;-85
2022/10/11 09:44:29;;;;;;;16.77;3.10;;;;;;;;;;4996834;28;92749;-84
2022/10/11 09:46:56;;;;;;;13.50;2.28;;;;;;;;;;5006109;28;96472;-84
2022/10/11 09:49:36;;;;;;;8.77;2.90;;;;;;;;;;4980443;28;92376;-84
2022/10/11 09:52:04;;;;;;;9.57;2.17;;;;;;;;;;4975969;28;94173;-84
2022/10/11 09:54:38;;;;;;;9.02;2.28;;;;;;;;;;4975772;28;94326;-82
2022/10/11 09:57:04;;;;;;;10.23;2.20;;;;;;;;;;4975652;28;92427;-85
2022/10/11 09:59:34;;;;;;;14.15;2.47;;;;;;;;;;4994906;28;94558;-83
2022/10/11 10:02:06;;;;;;;11.45;2.85;;;;;;;;;;4993686;28;93281;-83
2022/10/11 10:04:33;;;;;;;;;;;;;;;;;;4993516;28;93849;-83
2022/10/11 10:07:11;;;;;;;7.47;2.67;;;;;;;;;;4994497;28;123647;-86
2022/10/11 10:09:38;;;;;;;13.98;2.45;;;;;;;;;;4988831;28;94697;-84
2022/10/11 10:12:10;;;;;;;14.05;3.33;;;;;;;;;;4993337;28;94939;-88
2022/10/11 10:14:36;;;;;;;10.30;2.60;;;;;;;;;;4996842;28;94110;-85
2022/10/11 10:17:13;;;;;;;10.68;2.85;;;;;;;;;;4995412;28;92455;-85
2022/10/11 10:19:41;;;;;;;12.13;2.72;;;;;;;;;;4986855;28;93941;-88
2022/10/11 10:22:18;;;;;;;9.35;2.75;;;;;;;;;;4997712;28;94426;-87
2022/10/11 10:24:46;;;;;;;8.38;2.40;;;;;;;;;;4995341;28;93723;-87
2022/10/11 10:27:12;;;;;;;12.63;2.53;;;;;;;;;;4991522;28;94052;-87
2022/10/11 10:29:39;;;;;;;5.63;2.92;;;;;;;;;;4994993;28;91786;-85
2022/10/11 10:32:12;;;;;;;13.77;3.17;;;;;;;;;;4996487;28;93173;-86
2022/10/11 10:34:49;;;;;;;9.30;2.60;;;;;;;;;;4994090;28;94359;-84
2022/10/11 10:37:23;;;;;;;17.35;3.00;;;;;;;;;;4988960;28;95860;-82
2022/10/11 10:39:53;;;;;;;13.52;2.70;;;;;;;;;;4993817;28;96310;-84
2022/10/11 10:42:20;;;;;;;11.05;2.97;;;;;;;;;;4993790;28;94684;-86
2022/10/11 10:44:49;;;;;;;13.15;2.40;;;;;;;;;;4996523;28;92389;-83
2022/10/11 10:47:34;;;;;;;13.13;3.03;;;;;;;;;;4994459;28;94145;-84
2022/10/11 10:50:05;;;;;;;9.15;3.10;;;;;;;;;;4989257;28;94133;-87
2022/10/11 10:53:03;;;;;;;10.25;2.22;;;;;;;;;;4993765;28;93882;-81
2022/10/11 10:55:40;;;;;;;13.98;3.65;;;;;;;;;;4981543;28;93269;-82
2022/10/11 10:58:25;;;;;;;15.23;3.03;;;;;;;;;;4989446;28;92484;-80
2022/10/11 11:00:55;;;;;;;16.30;3.80;;;;;;;;;;4995024;28;94114;-80
2022/10/11 11:03:41;;;;;;;14.93;3.17;;;;;;;;;;4993018;28;97358;-80
2022/10/11 11:06:16;;;;;;;6.63;2.10;;;;;;;;;;4997138;28;92961;-80
2022/10/11 11:08:51;;;;;;;9.40;2.22;;;;;;;;;;4984897;28;94156;-82
2022/10/11 11:11:27;;;;;;;10.70;2.92;;;;;;;;;;4992715;28;92679;-81
2022/10/11 11:14:06;;;;;;;10.13;2.75;;;;;;;;;;4987870;28;93992;-80
2022/10/11 11:16:47;;;;;;;9.98;2.45;;;;;;;;;;4974987;28;93206;-81
2022/10/11 11:19:37;;;;;;;9.18;2.88;;;;;;;;;;4987301;28;92839;-80
2022/10/11 11:22:24;;;;;;;19.13;3.08;;;;;;;;;;4994141;28;93860;-80
2022/10/11 11:25:16;;;;;;;12.77;2.25;;;;;;;;;;4994257;28;94159;-80
2022/10/11 11:27:53;;;;;;;11.40;2.28;;;;;;;;;;4994059;28;92811;-80
2022/10/11 11:30:46;;;;;;;9.45;2.58;;;;;;;;;;4996062;28;94654;-80
2022/10/11 11:33:20;;;;;;;10.95;2.35;;;;;;;;;;4992065;28;92797;-80
2022/10/11 11:35:48;;;;;;;9.88;2.38;;;;;;;;;;4994805;28;93925;-80
2022/10/11 11:38:14;;;;;;;16.25;2.97;;;;;;;;;;4993929;28;93153;-80
2022/10/11 11:40:43;;;;;;;9.38;2.85;;;;;;;;;;4993864;28;93254;-80
2022/10/11 11:43:15;;;;;;;13.95;2.78;;;;;;;;;;4994275;28;92878;-79
2022/10/11 11:45:45;;;;;;;13.43;2.72;;;;;;;;;;4994473;28;94226;-80
2022/10/11 11:48:15;;;;;;;8.85;2.30;;;;;;;;;;4994050;28;92184;-80
2022/10/11 11:50:45;;;;;;;17.80;3.10;;;;;;;;;;4995098;28;93032;-80
2022/10/11 11:53:13;;;;;;;11.18;2.50;;;;;;;;;;4999424;28;94011;-80
2022/10/11 11:55:59;;;;;;;8.85;2.60;;;;;;;;;;4995333;28;94795;-80
2022/10/11 11:58:37;;;;;;;14.05;2.60;;;;;;;;;;4997785;28;93182;-80
2022/10/11 12:01:12;;;;;;;11.63;2.90;;;;;;;;;;4996840;28;92703;-80
2022/10/11 12:03:44;;;;;;;9.98;2.58;;;;;;;;;;4996569;28;93925;-80
2022/10/11 12:06:11;;;;;;;11.25;2.17;;;;;;;;;;4997329;28;93504;-80
2022/10/11 12:08:38;;;;;;;12.40;2.22;;;;;;;;;;4996739;28;92446;-80
2022/10/11 12:11:05;;;;;;;10.27;2.50;;;;;;;;;;4997318;28;93908;-87
2022/10/11 12:13:35;;;;;;;9.02;2.42;;;;;;;;;;4997626;28;92704;-75
2022/10/11 12:16:11;;;;;;;16.92;2.80;;;;;;;;;;4998347;28;92639;-77
2022/10/11 12:18:59;;;;;;;7.55;2.00;;;;;;;;;;4997297;28;93205;-77
2022/10/11 12:21:31;;;;;;;15.27;2.55;;;;;;;;;;4996019;28;94707;-77
2022/10/11 12:23:59;;;;;;;15.37;3.10;;;;;;;;;;4996221;28;96251;-77
2022/10/11 12:26:28;;;;;;;7.72;2.55;;;;;;;;;;4996462;28;94190;-77
2022/10/11 12:29:01;;;;;;;8.70;2.28;;;;;;;;;;4996478;28;92420;-78
2022/10/11 12:31:27;;;;;;;;;;;;;;;;;;4990045;28;93002;-77
2022/10/11 12:33:59;;;;;;;12.00;2.63;;;;;;;;;;4997175;28;122739;-77
2022/10/11 12:36:26;;;;;;;;;;;;;;;;;;4997222;28;93640;-77
2022/10/11 12:39:10;;;;;;;8.23;2.58;;;;;;;;;;5000915;28;123240;-77
2022/10/11 12:41:54;;;;;;;5.45;2.47;;;;;;;;;;4997393;28;92408;-77
2022/10/11 12:44:22;;;;;;;9.82;3.10;;;;;;;;;;4996159;28;94269;-77
2022/10/11 12:46:54;;;;;;;11.80;2.58;;;;;;;;;;4994241;28;96573;-77
2022/10/11 12:49:40;;;;;;;16.08;3.00;;;;;;;;;;4996634;28;92442;-77
2022/10/11 12:52:25;;;;;;;10.15;2.65;;;;;;;;;;4995991;28;94359;-77
2022/10/11 12:55:12;;;;;;;11.88;3.20;;;;;;;;;;4996554;28;93320;-77
2022/10/11 12:57:57;;;;;;;10.00;3.10;;;;;;;;;;4995836;28;92741;-77
2022/10/11 13:00:29;;;;;;;8.02;2.50;;;;;;;;;;4999929;28;94351;-77
2022/10/11 13:03:04;;;;;;;13.13;2.43;;;;;;;;;;4996233;28;92499;-77
2022/10/11 13:05:44;;;;;;;15.15;2.95;;;;;;;;;;4996427;28;94048;-77
2022/10/11 13:08:21;;;;;;;14.15;2.97;;;;;;;;;;4996454;28;93365;-77
2022/10/11 13:10:48;;;;;;;13.85;2.83;;;;;;;;;;4983586;28;92827;-77
2022/10/11 13:13:25;;;;;;;10.10;2.53;;;;;;;;;;4994119;28;94986;-78
2022/10/11 13:15:53;;;;;;;12.80;3.33;;;;;;;;;;4994817;28;94224;-77
2022/10/11 13:18:21;;;;;;;13.70;2.72;;;;;;;;;;4995510;28;92466;-77
2022/10/11 13:20:47;;;;;;;8.15;2.55;;;;;;;;;;4996528;28;94180;-77
2022/10/11 13:23:27;;;;;;;14.23;2.38;;;;;;;;;;4998595;28;94084;-78
2022/10/11 13:25:54;;;;;;;8.48;2.63;;;;;;;;;;4992166;28;93986;-80
2022/10/11 13:28:21;;;;;;;11.98;2.72;;;;;;;;;;4995595;28;94429;-79
2022/10/11 13:30:51;;;;;;;12.98;2.38;;;;;;;;;;4992551;28;91771;-78
2022/10/11 13:33:19;;;;;;;7.63;2.55;;;;;;;;;;4992427;28;93246;-77
2022/10/11 13:35:46;;;;;;;8.48;2.63;;;;;;;;;;4993055;28;94106;-77
2022/10/11 13:38:20;;;;;;;10.85;3.17;;;;;;;;;;4993043;28;94954;-77
2022/10/11 13:40:47;;;;;;;12.68;2.97;;;;;;;;;;4993690;28;96201;-77
2022/10/11 13:43:19;;;;;;;15.05;3.20;;;;;;;;;;4993052;28;94150;-80
2022/10/11 13:45:45;;;;;;;11.20;2.72;;;;;;;;;;4995784;28;92357;-82
2022/10/11 13:48:13;;;;;;;9.38;2.58;;;;;;;;;;4992665;28;94214;-78
2022/10/11 13:50:44;;;;;;;8.73;2.72;;;;;;;;;;4994504;28;92314;-80
2022/10/11 13:53:11;;;;;;;8.55;2.83;;;;;;;;;;4995821;28;93899;-80
2022/10/11 13:55:48;;;;;;;14.38;3.55;;;;;;;;;;4995298;28;92389;-80
2022/10/11 13:58:18;;;;;;;11.45;3.05;;;;;;;;;;4995702;28;92407;-79
2022/10/11 14:00:57;;;;;;;12.55;2.65;;;;;;;;;;4995279;28;94074;-79
2022/10/11 14:03:34;;;;;;;7.05;2.47;;;;;;;;;;4994137;28;96557;-80
2022/10/11 14:06:00;;;;;;;7.88;2.65;;;;;;;;;;4995345;28;92839;-80
2022/10/11 14:08:30;;;;;;;13.75;3.10;;;;;;;;;;4997807;28;94262;-79
2022/10/11 14:10:56;;;;;;;10.55;2.40;;;;;;;;;;4976377;28;93396;-79
2022/10/11 14:13:32;;;;;;;11.77;2.85;;;;;;;;;;4977364;28;93233;-79
2022/10/11 14:16:00;;;;;;;10.88;2.88;;;;;;;;;;4994087;28;94246;-79
2022/10/11 14:18:35;;;;;;;11.68;2.88;;;;;;;;;;4995682;28;92450;-79
2022/10/11 14:21:20;;;;;;;8.05;2.78;;;;;;;;;;4995832;28;94063;-79
2022/10/11 14:24:13;;;;;;;12.38;3.28;;;;;;;;;;4994920;28;94176;-79
2022/10/11 14:26:47;;;;;;;12.10;2.85;;;;;;;;;;4993770;28;92475;-79
2022/10/11 14:29:20;;;;;;;18.10;2.88;;;;;;;;;;4993121;28;95042;-79
2022/10/11 14:31:46;;;;;;;9.13;2.72;;;;;;;;;;4998389;28;94584;-79
2022/10/11 14:34:20;;;;;;;11.95;2.72;;;;;;;;;;4994956;28;93967;-79
2022/10/11 14:36:47;;;;;;;7.72;2.70;;;;;;;;;;4994391;28;94114;-79
2022/10/11 14:39:15;;;;;;;9.40;2.83;;;;;;;;;;4994806;28;92428;-79
2022/10/11 14:41:41;;;;;;;8.88;2.88;;;;;;;;;;4995405;28;94125;-79
2022/10/11 14:44:08;;;;;;;8.50;2.85;;;;;;;;;;4994005;28;94556;-79
2022/10/11 14:46:34;;;;;;;7.57;2.65;;;;;;;;;;4995825;28;91698;-79
2022/10/11 14:49:01;;;;;;;10.55;2.45;;;;;;;;;;4995149;28;93676;-79
2022/10/11 14:51:30;;;;;;;13.50;2.60;;;;;;;;;;4994261;28;94462;-79
2022/10/11 14:53:56;;;;;;;12.35;2.13;;;;;;;;;;4996716;28;95946;-79